sensor_id;sensor_type;location;lat;lon;timestamp;P1;durP1;ratioP1;P2;durP2;ratioP2
47349;SDS011;33088;51.982;5.872;2022-09-27T00:00:31;15.70;;;2.25;;
47349;SDS011;33088;51.982;5.872;2022-09-27T00:02:56;7.82;;;2.25;;
47349;SDS011;33088;51.982;5.872;2022-09-27T00:05:22;10.90;;;2.00;;
47349;SDS011;33088;51.982;5.872;2022-09-27T00:07:48;9.10;;;2.60;;
47349;SDS011;33088;51.982;5.872;2022-09-27T00:10:14;9.00;;;1.45;;
47349;SDS011;33088;51.982;5.872;2022-09-27T00:12:40;9.88;;;1.75;;
47349;SDS011;33088;51.982;5.872;2022-09-27T00:15:06;7.47;;;1.60;;
47349;SDS011;33088;51.982;5.872;2022-09-27T00:17:34;12.23;;;2.42;;
47349;SDS011;33088;51.982;5.872;2022-09-27T00:20:01;7.10;;;1.52;;
47349;SDS011;33088;51.982;5.872;2022-09-27T00:22:27;6.18;;;1.45;;
47349;SDS011;33088;51.982;5.872;2022-09-27T00:24:53;6.90;;;2.00;;
47349;SDS011;33088;51.982;5.872;2022-09-27T00:27:19;11.90;;;2.08;;
47349;SDS011;33088;51.982;5.872;2022-09-27T00:29:45;7.32;;;1.83;;
47349;SDS011;33088;51.982;5.872;2022-09-27T00:32:12;4.15;;;1.40;;
47349;SDS011;33088;51.982;5.872;2022-09-27T00:34:38;3.45;;;1.27;;
47349;SDS011;33088;51.982;5.872;2022-09-27T00:37:05;3.25;;;1.42;;
47349;SDS011;33088;51.982;5.872;2022-09-27T00:39:31;6.68;;;1.92;;
47349;SDS011;33088;51.982;5.872;2022-09-27T00:41:57;5.80;;;1.08;;
47349;SDS011;33088;51.982;5.872;2022-09-27T00:47:01;5.68;;;1.38;;
47349;SDS011;33088;51.982;5.872;2022-09-27T00:49:35;5.65;;;1.30;;
47349;SDS011;33088;51.982;5.872;2022-09-27T00:52:10;4.22;;;1.45;;
47349;SDS011;33088;51.982;5.872;2022-09-27T00:54:39;3.22;;;1.15;;
47349;SDS011;33088;51.982;5.872;2022-09-27T00:57:08;6.35;;;1.63;;
47349;SDS011;33088;51.982;5.872;2022-09-27T00:59:36;8.35;;;1.90;;
47349;SDS011;33088;51.982;5.872;2022-09-27T01:02:06;8.20;;;1.65;;
47349;SDS011;33088;51.982;5.872;2022-09-27T01:04:33;5.10;;;1.73;;
47349;SDS011;33088;51.982;5.872;2022-09-27T01:07:01;10.60;;;3.33;;
47349;SDS011;33088;51.982;5.872;2022-09-27T01:09:27;6.85;;;1.58;;
47349;SDS011;33088;51.982;5.872;2022-09-27T01:12:00;7.57;;;1.05;;
47349;SDS011;33088;51.982;5.872;2022-09-27T01:15:07;4.97;;;1.15;;
47349;SDS011;33088;51.982;5.872;2022-09-27T01:28:18;7.53;;;0.90;;
47349;SDS011;33088;51.982;5.872;2022-09-27T01:33:31;3.03;;;1.13;;
47349;SDS011;33088;51.982;5.872;2022-09-27T01:42:48;10.70;;;1.15;;
47349;SDS011;33088;51.982;5.872;2022-09-27T01:45:29;5.68;;;1.00;;
47349;SDS011;33088;51.982;5.872;2022-09-27T01:48:09;2.88;;;1.08;;
47349;SDS011;33088;51.982;5.872;2022-09-27T01:50:56;3.58;;;1.30;;
47349;SDS011;33088;51.982;5.872;2022-09-27T01:56:21;3.85;;;1.00;;
47349;SDS011;33088;51.982;5.872;2022-09-27T01:59:10;6.53;;;1.00;;
47349;SDS011;33088;51.982;5.872;2022-09-27T02:01:49;3.88;;;1.10;;
47349;SDS011;33088;51.982;5.872;2022-09-27T02:04:18;4.07;;;1.08;;
47349;SDS011;33088;51.982;5.872;2022-09-27T02:07:16;3.75;;;1.15;;
47349;SDS011;33088;51.982;5.872;2022-09-27T02:12:33;8.65;;;1.15;;
47349;SDS011;33088;51.982;5.872;2022-09-27T02:15:12;5.72;;;0.98;;
47349;SDS011;33088;51.982;5.872;2022-09-27T02:20:09;4.80;;;1.20;;
47349;SDS011;33088;51.982;5.872;2022-09-27T02:25:50;4.45;;;0.82;;
47349;SDS011;33088;51.982;5.872;2022-09-27T02:28:39;2.58;;;0.65;;
47349;SDS011;33088;51.982;5.872;2022-09-27T02:31:08;2.78;;;0.70;;
47349;SDS011;33088;51.982;5.872;2022-09-27T02:33:40;5.35;;;0.98;;
47349;SDS011;33088;51.982;5.872;2022-09-27T02:36:11;2.45;;;0.82;;
47349;SDS011;33088;51.982;5.872;2022-09-27T02:38:38;6.32;;;1.27;;
47349;SDS011;33088;51.982;5.872;2022-09-27T02:41:12;7.40;;;1.40;;
47349;SDS011;33088;51.982;5.872;2022-09-27T02:43:39;2.88;;;1.17;;
47349;SDS011;33088;51.982;5.872;2022-09-27T02:55:00;7.82;;;1.70;;
47349;SDS011;33088;51.982;5.872;2022-09-27T03:04:14;5.25;;;0.90;;
47349;SDS011;33088;51.982;5.872;2022-09-27T03:06:47;4.25;;;0.88;;
47349;SDS011;33088;51.982;5.872;2022-09-27T03:09:22;2.13;;;0.77;;
47349;SDS011;33088;51.982;5.872;2022-09-27T03:11:52;5.57;;;0.77;;
47349;SDS011;33088;51.982;5.872;2022-09-27T03:14:18;6.82;;;1.27;;
47349;SDS011;33088;51.982;5.872;2022-09-27T03:17:04;3.42;;;0.65;;
47349;SDS011;33088;51.982;5.872;2022-09-27T03:19:53;5.68;;;1.13;;
47349;SDS011;33088;51.982;5.872;2022-09-27T03:22:38;3.05;;;1.10;;
47349;SDS011;33088;51.982;5.872;2022-09-27T03:25:05;6.80;;;1.98;;
47349;SDS011;33088;51.982;5.872;2022-09-27T03:27:31;12.05;;;1.17;;
47349;SDS011;33088;51.982;5.872;2022-09-27T03:29:57;12.02;;;1.58;;
47349;SDS011;33088;51.982;5.872;2022-09-27T03:32:27;3.10;;;1.02;;
47349;SDS011;33088;51.982;5.872;2022-09-27T03:35:15;5.68;;;1.42;;
47349;SDS011;33088;51.982;5.872;2022-09-27T03:37:41;8.32;;;1.20;;
47349;SDS011;33088;51.982;5.872;2022-09-27T03:40:08;10.25;;;1.83;;
47349;SDS011;33088;51.982;5.872;2022-09-27T03:42:34;5.18;;;1.30;;
47349;SDS011;33088;51.982;5.872;2022-09-27T03:44:59;9.13;;;2.00;;
47349;SDS011;33088;51.982;5.872;2022-09-27T03:47:25;10.98;;;1.83;;
47349;SDS011;33088;51.982;5.872;2022-09-27T03:49:51;14.07;;;2.00;;
47349;SDS011;33088;51.982;5.872;2022-09-27T03:52:17;9.23;;;2.40;;
47349;SDS011;33088;51.982;5.872;2022-09-27T03:54:43;7.72;;;2.05;;
47349;SDS011;33088;51.982;5.872;2022-09-27T03:57:09;7.53;;;1.77;;
47349;SDS011;33088;51.982;5.872;2022-09-27T03:59:36;4.47;;;1.77;;
47349;SDS011;33088;51.982;5.872;2022-09-27T04:02:40;6.30;;;1.95;;
47349;SDS011;33088;51.982;5.872;2022-09-27T04:05:22;6.63;;;1.70;;
47349;SDS011;33088;51.982;5.872;2022-09-27T04:07:53;10.88;;;3.17;;
47349;SDS011;33088;51.982;5.872;2022-09-27T04:10:20;9.00;;;2.33;;
47349;SDS011;33088;51.982;5.872;2022-09-27T04:12:47;12.35;;;2.00;;
47349;SDS011;33088;51.982;5.872;2022-09-27T04:15:13;7.45;;;1.95;;
47349;SDS011;33088;51.982;5.872;2022-09-27T04:18:01;5.43;;;1.15;;
47349;SDS011;33088;51.982;5.872;2022-09-27T04:20:32;11.30;;;3.10;;
47349;SDS011;33088;51.982;5.872;2022-09-27T04:23:03;8.82;;;2.40;;
47349;SDS011;33088;51.982;5.872;2022-09-27T04:25:29;6.32;;;1.65;;
47349;SDS011;33088;51.982;5.872;2022-09-27T04:27:59;12.35;;;3.30;;
47349;SDS011;33088;51.982;5.872;2022-09-27T04:30:29;6.68;;;1.83;;
47349;SDS011;33088;51.982;5.872;2022-09-27T04:33:10;4.57;;;1.95;;
47349;SDS011;33088;51.982;5.872;2022-09-27T04:36:00;13.38;;;3.10;;
47349;SDS011;33088;51.982;5.872;2022-09-27T04:38:59;11.13;;;2.08;;
47349;SDS011;33088;51.982;5.872;2022-09-27T04:41:26;10.38;;;2.67;;
47349;SDS011;33088;51.982;5.872;2022-09-27T04:43:56;10.27;;;2.30;;
47349;SDS011;33088;51.982;5.872;2022-09-27T04:46:25;9.00;;;2.13;;
47349;SDS011;33088;51.982;5.872;2022-09-27T04:48:59;11.52;;;2.80;;
47349;SDS011;33088;51.982;5.872;2022-09-27T04:51:26;7.93;;;1.92;;
47349;SDS011;33088;51.982;5.872;2022-09-27T04:53:54;8.88;;;2.17;;
47349;SDS011;33088;51.982;5.872;2022-09-27T04:56:20;7.30;;;2.50;;
47349;SDS011;33088;51.982;5.872;2022-09-27T04:58:46;11.57;;;3.42;;
47349;SDS011;33088;51.982;5.872;2022-09-27T05:01:12;10.60;;;2.65;;
47349;SDS011;33088;51.982;5.872;2022-09-27T05:04:04;9.07;;;2.08;;
47349;SDS011;33088;51.982;5.872;2022-09-27T05:06:32;5.25;;;1.55;;
47349;SDS011;33088;51.982;5.872;2022-09-27T05:09:04;14.77;;;3.08;;
47349;SDS011;33088;51.982;5.872;2022-09-27T05:11:36;9.48;;;2.17;;
47349;SDS011;33088;51.982;5.872;2022-09-27T05:14:14;9.05;;;2.47;;
47349;SDS011;33088;51.982;5.872;2022-09-27T05:16:56;5.10;;;2.97;;
47349;SDS011;33088;51.982;5.872;2022-09-27T05:19:45;6.65;;;2.17;;
47349;SDS011;33088;51.982;5.872;2022-09-27T05:22:15;15.77;;;2.40;;
47349;SDS011;33088;51.982;5.872;2022-09-27T05:24:41;12.20;;;2.95;;
47349;SDS011;33088;51.982;5.872;2022-09-27T05:27:07;10.95;;;2.45;;
47349;SDS011;33088;51.982;5.872;2022-09-27T05:29:36;11.73;;;1.80;;
47349;SDS011;33088;51.982;5.872;2022-09-27T05:32:13;6.72;;;1.77;;
47349;SDS011;33088;51.982;5.872;2022-09-27T05:34:40;6.40;;;1.63;;
47349;SDS011;33088;51.982;5.872;2022-09-27T05:37:05;10.23;;;2.25;;
47349;SDS011;33088;51.982;5.872;2022-09-27T05:39:36;4.07;;;1.27;;
47349;SDS011;33088;51.982;5.872;2022-09-27T05:42:02;6.07;;;1.33;;
47349;SDS011;33088;51.982;5.872;2022-09-27T05:44:29;8.25;;;1.70;;
47349;SDS011;33088;51.982;5.872;2022-09-27T05:47:01;4.03;;;1.10;;
47349;SDS011;33088;51.982;5.872;2022-09-27T05:49:28;4.50;;;1.20;;
47349;SDS011;33088;51.982;5.872;2022-09-27T05:51:54;8.25;;;1.33;;
47349;SDS011;33088;51.982;5.872;2022-09-27T05:54:22;4.28;;;1.45;;
47349;SDS011;33088;51.982;5.872;2022-09-27T05:56:47;7.20;;;1.40;;
47349;SDS011;33088;51.982;5.872;2022-09-27T05:59:24;10.38;;;1.63;;
47349;SDS011;33088;51.982;5.872;2022-09-27T06:02:11;4.75;;;1.60;;
47349;SDS011;33088;51.982;5.872;2022-09-27T06:04:55;4.05;;;1.40;;
47349;SDS011;33088;51.982;5.872;2022-09-27T06:07:38;7.18;;;1.48;;
47349;SDS011;33088;51.982;5.872;2022-09-27T06:10:08;6.63;;;3.20;;
47349;SDS011;33088;51.982;5.872;2022-09-27T06:12:34;7.22;;;2.00;;
47349;SDS011;33088;51.982;5.872;2022-09-27T06:15:01;7.13;;;1.42;;
47349;SDS011;33088;51.982;5.872;2022-09-27T06:17:34;6.82;;;1.27;;
47349;SDS011;33088;51.982;5.872;2022-09-27T06:20:04;6.45;;;1.50;;
47349;SDS011;33088;51.982;5.872;2022-09-27T06:22:31;4.10;;;1.50;;
47349;SDS011;33088;51.982;5.872;2022-09-27T06:24:58;6.68;;;1.73;;
47349;SDS011;33088;51.982;5.872;2022-09-27T06:27:28;10.68;;;2.00;;
47349;SDS011;33088;51.982;5.872;2022-09-27T06:30:04;3.83;;;1.90;;
47349;SDS011;33088;51.982;5.872;2022-09-27T06:32:45;4.07;;;2.13;;
47349;SDS011;33088;51.982;5.872;2022-09-27T06:35:28;5.50;;;1.75;;
47349;SDS011;33088;51.982;5.872;2022-09-27T06:37:55;7.68;;;2.13;;
47349;SDS011;33088;51.982;5.872;2022-09-27T06:40:22;2.83;;;1.40;;
47349;SDS011;33088;51.982;5.872;2022-09-27T06:43:12;4.75;;;1.48;;
47349;SDS011;33088;51.982;5.872;2022-09-27T06:46:03;6.55;;;1.83;;
47349;SDS011;33088;51.982;5.872;2022-09-27T06:48:48;5.72;;;1.63;;
47349;SDS011;33088;51.982;5.872;2022-09-27T06:51:15;3.53;;;1.23;;
47349;SDS011;33088;51.982;5.872;2022-09-27T06:53:42;5.25;;;1.77;;
47349;SDS011;33088;51.982;5.872;2022-09-27T06:56:07;8.48;;;1.63;;
47349;SDS011;33088;51.982;5.872;2022-09-27T06:59:02;9.00;;;1.50;;
47349;SDS011;33088;51.982;5.872;2022-09-27T07:01:46;4.15;;;1.70;;
47349;SDS011;33088;51.982;5.872;2022-09-27T07:04:51;9.00;;;1.52;;
47349;SDS011;33088;51.982;5.872;2022-09-27T07:07:35;4.05;;;1.25;;
47349;SDS011;33088;51.982;5.872;2022-09-27T07:10:01;4.25;;;1.70;;
47349;SDS011;33088;51.982;5.872;2022-09-27T07:12:27;6.07;;;1.80;;
47349;SDS011;33088;51.982;5.872;2022-09-27T07:14:53;4.85;;;1.73;;
47349;SDS011;33088;51.982;5.872;2022-09-27T07:17:19;4.70;;;1.52;;
47349;SDS011;33088;51.982;5.872;2022-09-27T07:19:47;6.45;;;1.63;;
47349;SDS011;33088;51.982;5.872;2022-09-27T07:22:13;5.10;;;1.30;;
47349;SDS011;33088;51.982;5.872;2022-09-27T07:24:41;5.47;;;1.63;;
47349;SDS011;33088;51.982;5.872;2022-09-27T07:27:07;4.75;;;1.35;;
47349;SDS011;33088;51.982;5.872;2022-09-27T07:29:32;4.72;;;2.05;;
47349;SDS011;33088;51.982;5.872;2022-09-27T07:31:58;4.32;;;1.83;;
47349;SDS011;33088;51.982;5.872;2022-09-27T07:34:25;9.05;;;2.40;;
47349;SDS011;33088;51.982;5.872;2022-09-27T07:36:52;1.52;;;1.15;;
47349;SDS011;33088;51.982;5.872;2022-09-27T07:39:19;6.70;;;1.65;;
47349;SDS011;33088;51.982;5.872;2022-09-27T07:41:46;4.07;;;1.48;;
47349;SDS011;33088;51.982;5.872;2022-09-27T07:44:12;8.57;;;2.10;;
47349;SDS011;33088;51.982;5.872;2022-09-27T07:46:54;5.50;;;1.52;;
47349;SDS011;33088;51.982;5.872;2022-09-27T07:49:23;6.65;;;1.70;;
47349;SDS011;33088;51.982;5.872;2022-09-27T07:52:07;8.43;;;1.83;;
47349;SDS011;33088;51.982;5.872;2022-09-27T07:55:05;3.42;;;1.40;;
47349;SDS011;33088;51.982;5.872;2022-09-27T07:57:48;8.30;;;1.70;;
47349;SDS011;33088;51.982;5.872;2022-09-27T08:00:16;4.57;;;1.27;;
47349;SDS011;33088;51.982;5.872;2022-09-27T08:02:45;4.13;;;1.30;;
47349;SDS011;33088;51.982;5.872;2022-09-27T08:05:11;6.78;;;1.60;;
47349;SDS011;33088;51.982;5.872;2022-09-27T08:07:38;5.38;;;1.30;;
47349;SDS011;33088;51.982;5.872;2022-09-27T08:10:05;4.43;;;1.10;;
47349;SDS011;33088;51.982;5.872;2022-09-27T08:12:33;4.18;;;0.90;;
47349;SDS011;33088;51.982;5.872;2022-09-27T08:14:59;3.80;;;0.50;;
47349;SDS011;33088;51.982;5.872;2022-09-27T08:17:29;4.60;;;1.33;;
47349;SDS011;33088;51.982;5.872;2022-09-27T08:20:20;6.18;;;1.40;;
47349;SDS011;33088;51.982;5.872;2022-09-27T08:23:06;1.70;;;1.08;;
47349;SDS011;33088;51.982;5.872;2022-09-27T08:25:34;5.95;;;1.27;;
47349;SDS011;33088;51.982;5.872;2022-09-27T08:28:19;4.93;;;1.67;;
47349;SDS011;33088;51.982;5.872;2022-09-27T08:30:56;4.32;;;1.60;;
47349;SDS011;33088;51.982;5.872;2022-09-27T08:33:23;2.95;;;2.10;;
47349;SDS011;33088;51.982;5.872;2022-09-27T08:35:50;3.55;;;1.63;;
47349;SDS011;33088;51.982;5.872;2022-09-27T08:38:16;3.75;;;1.00;;
47349;SDS011;33088;51.982;5.872;2022-09-27T08:40:45;7.50;;;1.80;;
47349;SDS011;33088;51.982;5.872;2022-09-27T08:43:46;4.43;;;1.58;;
47349;SDS011;33088;51.982;5.872;2022-09-27T08:46:26;4.65;;;1.88;;
47349;SDS011;33088;51.982;5.872;2022-09-27T08:52:03;3.63;;;2.22;;
47349;SDS011;33088;51.982;5.872;2022-09-27T08:54:32;5.65;;;2.53;;
47349;SDS011;33088;51.982;5.872;2022-09-27T08:57:01;4.70;;;2.53;;
47349;SDS011;33088;51.982;5.872;2022-09-27T08:59:34;5.47;;;2.00;;
47349;SDS011;33088;51.982;5.872;2022-09-27T09:02:19;8.07;;;2.75;;
47349;SDS011;33088;51.982;5.872;2022-09-27T09:04:53;3.63;;;2.00;;
47349;SDS011;33088;51.982;5.872;2022-09-27T09:16:02;2.78;;;1.75;;
47349;SDS011;33088;51.982;5.872;2022-09-27T09:18:56;2.35;;;1.00;;
47349;SDS011;33088;51.982;5.872;2022-09-27T09:21:51;1.50;;;0.80;;
47349;SDS011;33088;51.982;5.872;2022-09-27T09:27:37;5.78;;;1.02;;
47349;SDS011;33088;51.982;5.872;2022-09-27T09:30:22;3.38;;;1.58;;
47349;SDS011;33088;51.982;5.872;2022-09-27T09:35:39;3.63;;;1.73;;
47349;SDS011;33088;51.982;5.872;2022-09-27T09:38:44;7.75;;;1.80;;
47349;SDS011;33088;51.982;5.872;2022-09-27T09:41:14;3.65;;;1.80;;
47349;SDS011;33088;51.982;5.872;2022-09-27T09:43:58;3.03;;;1.42;;
47349;SDS011;33088;51.982;5.872;2022-09-27T09:46:32;2.92;;;1.90;;
47349;SDS011;33088;51.982;5.872;2022-09-27T09:49:05;3.10;;;1.65;;
47349;SDS011;33088;51.982;5.872;2022-09-27T09:51:54;5.72;;;1.70;;
47349;SDS011;33088;51.982;5.872;2022-09-27T09:57:06;4.70;;;1.30;;
47349;SDS011;33088;51.982;5.872;2022-09-27T10:02:16;5.18;;;1.02;;
47349;SDS011;33088;51.982;5.872;2022-09-27T10:04:44;6.47;;;1.38;;
47349;SDS011;33088;51.982;5.872;2022-09-27T10:07:09;4.20;;;1.67;;
47349;SDS011;33088;51.982;5.872;2022-09-27T10:09:36;1.92;;;1.10;;
47349;SDS011;33088;51.982;5.872;2022-09-27T10:12:23;2.95;;;1.25;;
47349;SDS011;33088;51.982;5.872;2022-09-27T10:14:53;2.47;;;0.98;;
47349;SDS011;33088;51.982;5.872;2022-09-27T10:17:24;2.67;;;1.05;;
47349;SDS011;33088;51.982;5.872;2022-09-27T10:19:57;7.50;;;1.40;;
47349;SDS011;33088;51.982;5.872;2022-09-27T10:22:28;2.65;;;0.90;;
47349;SDS011;33088;51.982;5.872;2022-09-27T10:25:06;2.92;;;0.80;;
47349;SDS011;33088;51.982;5.872;2022-09-27T10:27:41;2.65;;;0.90;;
47349;SDS011;33088;51.982;5.872;2022-09-27T10:30:27;4.78;;;1.05;;
47349;SDS011;33088;51.982;5.872;2022-09-27T10:33:06;5.32;;;1.92;;
47349;SDS011;33088;51.982;5.872;2022-09-27T10:35:43;3.90;;;0.93;;
47349;SDS011;33088;51.982;5.872;2022-09-27T10:46:48;7.57;;;1.10;;
47349;SDS011;33088;51.982;5.872;2022-09-27T10:52:12;6.53;;;1.30;;
47349;SDS011;33088;51.982;5.872;2022-09-27T10:54:43;3.35;;;1.48;;
47349;SDS011;33088;51.982;5.872;2022-09-27T10:57:26;4.07;;;0.73;;
47349;SDS011;33088;51.982;5.872;2022-09-27T10:59:59;4.35;;;1.10;;
47349;SDS011;33088;51.982;5.872;2022-09-27T11:02:31;4.03;;;1.00;;
47349;SDS011;33088;51.982;5.872;2022-09-27T11:05:15;6.10;;;1.13;;
47349;SDS011;33088;51.982;5.872;2022-09-27T11:08:02;2.40;;;0.65;;
47349;SDS011;33088;51.982;5.872;2022-09-27T11:13:36;3.63;;;1.00;;
47349;SDS011;33088;51.982;5.872;2022-09-27T11:18:59;1.05;;;0.50;;
47349;SDS011;33088;51.982;5.872;2022-09-27T11:27:32;0.97;;;0.43;;
47349;SDS011;33088;51.982;5.872;2022-09-27T11:30:22;1.48;;;0.88;;
47349;SDS011;33088;51.982;5.872;2022-09-27T11:35:55;3.53;;;0.75;;
47349;SDS011;33088;51.982;5.872;2022-09-27T11:38:47;2.78;;;0.80;;
47349;SDS011;33088;51.982;5.872;2022-09-27T11:41:18;1.38;;;0.60;;
47349;SDS011;33088;51.982;5.872;2022-09-27T11:46:39;2.00;;;0.50;;
47349;SDS011;33088;51.982;5.872;2022-09-27T11:52:12;3.08;;;0.90;;
47349;SDS011;33088;51.982;5.872;2022-09-27T12:13:48;4.00;;;0.57;;
47349;SDS011;33088;51.982;5.872;2022-09-27T12:16:19;2.47;;;0.50;;
47349;SDS011;33088;51.982;5.872;2022-09-27T12:18:47;1.83;;;0.63;;
47349;SDS011;33088;51.982;5.872;2022-09-27T12:21:34;1.70;;;0.52;;
47349;SDS011;33088;51.982;5.872;2022-09-27T12:24:01;0.95;;;0.43;;
47349;SDS011;33088;51.982;5.872;2022-09-27T12:26:41;3.95;;;0.65;;
47349;SDS011;33088;51.982;5.872;2022-09-27T12:37:11;0.38;;;0.30;;
47349;SDS011;33088;51.982;5.872;2022-09-27T12:42:38;1.75;;;0.50;;
47349;SDS011;33088;51.982;5.872;2022-09-27T12:45:30;0.80;;;0.45;;
47349;SDS011;33088;51.982;5.872;2022-09-27T12:50:41;1.00;;;0.32;;
47349;SDS011;33088;51.982;5.872;2022-09-27T12:53:12;1.30;;;0.50;;
47349;SDS011;33088;51.982;5.872;2022-09-27T12:56:09;1.83;;;0.60;;
47349;SDS011;33088;51.982;5.872;2022-09-27T12:58:48;3.45;;;0.77;;
47349;SDS011;33088;51.982;5.872;2022-09-27T13:01:48;1.13;;;0.40;;
47349;SDS011;33088;51.982;5.872;2022-09-27T13:09:55;4.70;;;0.73;;
47349;SDS011;33088;51.982;5.872;2022-09-27T13:12:35;1.35;;;0.55;;
47349;SDS011;33088;51.982;5.872;2022-09-27T13:15:05;1.73;;;0.60;;
47349;SDS011;33088;51.982;5.872;2022-09-27T13:23:47;1.35;;;0.70;;
47349;SDS011;33088;51.982;5.872;2022-09-27T13:25:56;0.80;;;0.63;;
47349;SDS011;33088;51.982;5.872;2022-09-27T13:31:59;1.00;;;0.65;;
47349;SDS011;33088;51.982;5.872;2022-09-27T13:34:37;1.98;;;0.55;;
47349;SDS011;33088;51.982;5.872;2022-09-27T13:43:25;3.50;;;0.57;;
47349;SDS011;33088;51.982;5.872;2022-09-27T13:46:35;0.82;;;0.47;;
47349;SDS011;33088;51.982;5.872;2022-09-27T13:49:20;1.17;;;0.55;;
47349;SDS011;33088;51.982;5.872;2022-09-27T13:55:16;1.10;;;0.77;;
47349;SDS011;33088;51.982;5.872;2022-09-27T13:58:41;1.50;;;0.80;;
47349;SDS011;33088;51.982;5.872;2022-09-27T14:01:51;1.70;;;0.90;;
47349;SDS011;33088;51.982;5.872;2022-09-27T14:04:39;5.13;;;0.68;;
47349;SDS011;33088;51.982;5.872;2022-09-27T14:07:09;4.68;;;0.70;;
47349;SDS011;33088;51.982;5.872;2022-09-27T14:09:39;2.17;;;0.73;;
47349;SDS011;33088;51.982;5.872;2022-09-27T14:12:32;3.65;;;0.68;;
47349;SDS011;33088;51.982;5.872;2022-09-27T14:15:03;2.83;;;0.88;;
47349;SDS011;33088;51.982;5.872;2022-09-27T14:17:33;1.48;;;0.88;;
47349;SDS011;33088;51.982;5.872;2022-09-27T14:19:59;2.67;;;0.82;;
47349;SDS011;33088;51.982;5.872;2022-09-27T14:22:27;1.25;;;0.60;;
47349;SDS011;33088;51.982;5.872;2022-09-27T14:24:55;1.92;;;0.70;;
47349;SDS011;33088;51.982;5.872;2022-09-27T14:27:29;1.73;;;0.70;;
47349;SDS011;33088;51.982;5.872;2022-09-27T14:30:19;7.18;;;0.85;;
47349;SDS011;33088;51.982;5.872;2022-09-27T14:32:55;1.30;;;0.70;;
47349;SDS011;33088;51.982;5.872;2022-09-27T14:35:34;2.53;;;0.73;;
47349;SDS011;33088;51.982;5.872;2022-09-27T14:38:20;1.90;;;0.52;;
47349;SDS011;33088;51.982;5.872;2022-09-27T14:43:22;2.45;;;0.60;;
47349;SDS011;33088;51.982;5.872;2022-09-27T14:45:48;2.38;;;0.75;;
47349;SDS011;33088;51.982;5.872;2022-09-27T14:50:48;2.45;;;0.60;;
47349;SDS011;33088;51.982;5.872;2022-09-27T14:53:25;1.98;;;0.57;;
47349;SDS011;33088;51.982;5.872;2022-09-27T14:55:52;1.23;;;0.47;;
47349;SDS011;33088;51.982;5.872;2022-09-27T14:58:19;1.23;;;0.57;;
47349;SDS011;33088;51.982;5.872;2022-09-27T15:00:50;7.30;;;1.05;;
47349;SDS011;33088;51.982;5.872;2022-09-27T15:03:25;2.05;;;0.70;;
47349;SDS011;33088;51.982;5.872;2022-09-27T15:05:58;1.58;;;0.70;;
47349;SDS011;33088;51.982;5.872;2022-09-27T15:08:28;1.40;;;0.77;;
47349;SDS011;33088;51.982;5.872;2022-09-27T15:10:54;1.80;;;0.98;;
47349;SDS011;33088;51.982;5.872;2022-09-27T15:13:21;2.50;;;0.85;;
47349;SDS011;33088;51.982;5.872;2022-09-27T15:15:48;1.20;;;0.80;;
47349;SDS011;33088;51.982;5.872;2022-09-27T15:21:36;1.27;;;0.70;;
47349;SDS011;33088;51.982;5.872;2022-09-27T15:24:01;2.15;;;0.68;;
47349;SDS011;33088;51.982;5.872;2022-09-27T15:26:40;1.55;;;0.77;;
47349;SDS011;33088;51.982;5.872;2022-09-27T15:29:19;1.20;;;0.67;;
47349;SDS011;33088;51.982;5.872;2022-09-27T15:32:01;2.85;;;0.80;;
47349;SDS011;33088;51.982;5.872;2022-09-27T15:34:29;1.23;;;0.85;;
47349;SDS011;33088;51.982;5.872;2022-09-27T15:36:58;1.55;;;1.20;;
47349;SDS011;33088;51.982;5.872;2022-09-27T15:42:10;2.50;;;0.57;;
47349;SDS011;33088;51.982;5.872;2022-09-27T15:44:49;2.45;;;0.70;;
47349;SDS011;33088;51.982;5.872;2022-09-27T15:55:14;0.90;;;0.85;;
47349;SDS011;33088;51.982;5.872;2022-09-27T15:57:41;2.45;;;0.90;;
47349;SDS011;33088;51.982;5.872;2022-09-27T16:00:12;5.70;;;1.75;;
47349;SDS011;33088;51.982;5.872;2022-09-27T16:05:06;2.28;;;0.93;;
47349;SDS011;33088;51.982;5.872;2022-09-27T16:07:34;2.85;;;1.90;;
47349;SDS011;33088;51.982;5.872;2022-09-27T16:10:00;4.97;;;1.60;;
47349;SDS011;33088;51.982;5.872;2022-09-27T16:12:26;1.60;;;1.35;;
47349;SDS011;33088;51.982;5.872;2022-09-27T16:14:54;2.50;;;1.58;;
47349;SDS011;33088;51.982;5.872;2022-09-27T16:17:21;6.10;;;3.55;;
47349;SDS011;33088;51.982;5.872;2022-09-27T16:19:46;3.72;;;1.40;;
47349;SDS011;33088;51.982;5.872;2022-09-27T16:22:14;3.97;;;2.33;;
47349;SDS011;33088;51.982;5.872;2022-09-27T16:24:40;2.67;;;2.22;;
47349;SDS011;33088;51.982;5.872;2022-09-27T16:27:05;2.88;;;1.70;;
47349;SDS011;33088;51.982;5.872;2022-09-27T16:29:31;2.20;;;1.73;;
47349;SDS011;33088;51.982;5.872;2022-09-27T16:31:57;2.47;;;1.98;;
47349;SDS011;33088;51.982;5.872;2022-09-27T16:34:22;1.50;;;1.40;;
47349;SDS011;33088;51.982;5.872;2022-09-27T16:36:48;2.28;;;2.03;;
47349;SDS011;33088;51.982;5.872;2022-09-27T16:39:14;3.53;;;2.03;;
47349;SDS011;33088;51.982;5.872;2022-09-27T16:41:40;1.95;;;1.63;;
47349;SDS011;33088;51.982;5.872;2022-09-27T16:44:10;5.55;;;3.78;;
47349;SDS011;33088;51.982;5.872;2022-09-27T16:46:41;6.40;;;2.60;;
47349;SDS011;33088;51.982;5.872;2022-09-27T16:49:10;3.00;;;1.60;;
47349;SDS011;33088;51.982;5.872;2022-09-27T16:51:54;4.55;;;2.70;;
47349;SDS011;33088;51.982;5.872;2022-09-27T16:54:23;4.78;;;2.40;;
47349;SDS011;33088;51.982;5.872;2022-09-27T16:56:52;10.23;;;2.60;;
47349;SDS011;33088;51.982;5.872;2022-09-27T16:59:18;6.38;;;2.20;;
47349;SDS011;33088;51.982;5.872;2022-09-27T17:01:44;14.65;;;2.17;;
47349;SDS011;33088;51.982;5.872;2022-09-27T17:04:10;2.90;;;1.55;;
47349;SDS011;33088;51.982;5.872;2022-09-27T17:06:36;2.38;;;1.48;;
47349;SDS011;33088;51.982;5.872;2022-09-27T17:09:02;7.05;;;1.63;;
47349;SDS011;33088;51.982;5.872;2022-09-27T17:11:28;9.93;;;3.15;;
47349;SDS011;33088;51.982;5.872;2022-09-27T17:13:54;3.95;;;1.77;;
47349;SDS011;33088;51.982;5.872;2022-09-27T17:16:20;2.15;;;1.60;;
47349;SDS011;33088;51.982;5.872;2022-09-27T17:18:46;6.78;;;1.60;;
47349;SDS011;33088;51.982;5.872;2022-09-27T17:21:12;7.05;;;2.08;;
47349;SDS011;33088;51.982;5.872;2022-09-27T17:23:38;1.38;;;0.90;;
47349;SDS011;33088;51.982;5.872;2022-09-27T17:26:06;3.15;;;1.15;;
47349;SDS011;33088;51.982;5.872;2022-09-27T17:28:33;6.55;;;1.20;;
47349;SDS011;33088;51.982;5.872;2022-09-27T17:31:04;1.75;;;1.30;;
47349;SDS011;33088;51.982;5.872;2022-09-27T17:33:36;6.90;;;2.22;;
47349;SDS011;33088;51.982;5.872;2022-09-27T17:36:09;4.82;;;1.95;;
47349;SDS011;33088;51.982;5.872;2022-09-27T17:38:38;6.45;;;1.88;;
47349;SDS011;33088;51.982;5.872;2022-09-27T17:41:05;2.70;;;1.42;;
47349;SDS011;33088;51.982;5.872;2022-09-27T17:43:35;2.85;;;1.38;;
47349;SDS011;33088;51.982;5.872;2022-09-27T17:46:04;5.60;;;1.30;;
47349;SDS011;33088;51.982;5.872;2022-09-27T17:48:32;2.70;;;1.27;;
47349;SDS011;33088;51.982;5.872;2022-09-27T17:51:16;4.45;;;1.80;;
47349;SDS011;33088;51.982;5.872;2022-09-27T17:53:42;4.20;;;1.38;;
47349;SDS011;33088;51.982;5.872;2022-09-27T17:56:09;4.38;;;1.60;;
47349;SDS011;33088;51.982;5.872;2022-09-27T17:58:35;3.42;;;1.73;;
47349;SDS011;33088;51.982;5.872;2022-09-27T18:01:02;6.95;;;1.77;;
47349;SDS011;33088;51.982;5.872;2022-09-27T18:03:32;7.35;;;1.77;;
47349;SDS011;33088;51.982;5.872;2022-09-27T18:06:02;4.95;;;2.08;;
47349;SDS011;33088;51.982;5.872;2022-09-27T18:08:30;2.50;;;1.50;;
47349;SDS011;33088;51.982;5.872;2022-09-27T18:11:01;3.85;;;1.95;;
47349;SDS011;33088;51.982;5.872;2022-09-27T18:13:28;2.70;;;1.48;;
47349;SDS011;33088;51.982;5.872;2022-09-27T18:16:02;4.63;;;1.63;;
47349;SDS011;33088;51.982;5.872;2022-09-27T18:18:28;5.22;;;2.03;;
47349;SDS011;33088;51.982;5.872;2022-09-27T18:20:59;3.58;;;1.30;;
47349;SDS011;33088;51.982;5.872;2022-09-27T18:23:27;4.75;;;1.75;;